Time;durP1;ratioP1;P1;durP2;ratioP2;P2;SDS_P1;SDS_P2;PMS_P1;PMS_P2;Temp;Humidity;BMP_temperature;BMP_pressure;BME280_temperature;BME280_humidity;BME280_pressure;Samples;Min_cycle;Max_cycle;Signal;HPM_P1;HPM_P2
2023/01/20 00:02:18;;;;;;;19.10;8.80;;;;;;;10.77;71.64;99886.83;104734;1264;59640;-49
2023/01/20 00:04:47;;;;;;;21.70;9.60;;;;;;;10.76;71.67;99886.24;104731;1266;65282;-49
2023/01/20 00:07:14;;;;;;;22.60;9.80;;;;;;;10.73;71.60;99883.69;104732;1269;63598;-49
2023/01/20 00:09:41;;;;;;;23.30;9.40;;;;;;;10.78;71.38;99887.10;104905;1264;66140;-49
2023/01/20 00:12:08;;;;;;;25.60;10.00;;;;;;;10.82;71.12;99888.36;104813;1261;59755;-50
2023/01/20 00:14:35;;;;;;;22.50;9.50;;;;;;;10.82;71.08;99887.11;104748;1266;59643;-50
2023/01/20 00:17:01;;;;;;;22.50;10.00;;;;;;;10.82;71.20;99890.60;104865;1266;66904;-51
2023/01/20 00:19:29;;;;;;;29.20;9.90;;;;;;;10.81;71.34;99888.03;104798;1266;63765;-50
2023/01/20 00:21:55;;;;;;;25.60;10.10;;;;;;;10.83;71.24;99884.56;104667;1267;65132;-50
2023/01/20 00:24:22;;;;;;;19.80;10.10;;;;;;;10.81;71.03;99882.80;104723;1267;59708;-49
2023/01/20 00:26:49;;;;;;;22.10;9.30;;;;;;;10.80;70.86;99878.87;104759;1267;59675;-51
2023/01/20 00:29:16;;;;;;;21.80;10.00;;;;;;;10.81;70.86;99886.30;104667;1261;65215;-50
2023/01/20 00:31:43;;;;;;;28.60;10.30;;;;;;;10.83;70.80;99886.08;104795;1267;64030;-52
2023/01/20 00:34:10;;;;;;;27.00;11.20;;;;;;;10.81;70.70;99889.25;104815;1263;66278;-53
2023/01/20 00:44:29;;;;;;;26.80;10.30;;;;;;;10.53;70.90;99884.02;104835;1263;66608;-53
2023/01/20 00:46:55;;;;;;;22.40;9.60;;;;;;;10.44;71.16;99882.52;104679;1266;63823;-51
2023/01/20 00:49:22;;;;;;;23.10;7.60;;;;;;;10.41;71.25;99882.98;104680;1267;64878;-53
2023/01/20 00:51:49;;;;;;;25.80;10.40;;;;;;;10.39;71.30;99885.92;104737;1267;59679;-54
2023/01/20 00:54:17;;;;;;;27.10;9.70;;;;;;;10.38;71.40;99888.98;104730;1266;59576;-53
2023/01/20 00:56:43;;;;;;;25.00;10.10;;;;;;;10.36;71.70;99887.28;104874;1269;66718;-53
2023/01/20 00:59:10;;;;;;;18.90;9.30;;;;;;;10.35;71.71;99884.20;104696;1267;63630;-52
2023/01/20 01:01:37;;;;;;;22.70;9.00;;;;;;;10.32;71.62;99882.35;104710;1266;66355;-54
2023/01/20 01:04:05;;;;;;;19.10;8.40;;;;;;;10.33;71.49;99881.56;104865;1266;59710;-54
2023/01/20 01:06:31;;;;;;;17.60;8.70;;;;;;;10.35;71.39;99878.22;104755;1266;59643;-54
2023/01/20 01:08:58;;;;;;;21.40;9.40;;;;;;;10.35;71.37;99878.06;104805;1266;66671;-54
2023/01/20 01:11:25;;;;;;;18.80;9.00;;;;;;;10.33;71.56;99880.16;104852;1265;63790;-51
2023/01/20 01:13:54;;;;;;;22.90;10.10;;;;;;;10.32;71.63;99881.10;104797;1268;66064;-54
2023/01/20 01:16:21;;;;;;;22.60;9.90;;;;;;;10.30;71.61;99889.17;104911;1266;59832;-54
2023/01/20 01:18:48;;;;;;;19.00;9.40;;;;;;;10.27;71.57;99888.55;104862;1266;59623;-57
2023/01/20 01:21:15;;;;;;;22.80;9.00;;;;;;;10.30;71.53;99883.77;104941;1266;66322;-54
2023/01/20 01:23:42;;;;;;;24.50;8.20;;;;;;;10.35;71.38;99882.30;105210;1263;62648;-54
2023/01/20 01:26:09;;;;;;;20.10;8.10;;;;;;;10.39;71.20;99881.02;105042;1264;65311;-55
2023/01/20 01:28:36;;;;;;;18.00;8.90;;;;;;;10.39;71.10;99883.11;105116;1262;59567;-54
2023/01/20 01:31:04;;;;;;;22.50;9.60;;;;;;;10.39;71.19;99882.07;105144;1261;59650;-53
2023/01/20 01:33:32;;;;;;;21.30;8.90;;;;;;;10.40;71.12;99882.12;105464;1260;66233;-54
2023/01/20 01:36:00;;;;;;;25.40;9.60;;;;;;;10.37;70.80;99877.01;105296;1257;63828;-54
2023/01/20 01:38:27;;;;;;;18.50;8.50;;;;;;;10.28;70.57;99873.20;105569;1257;65714;-54
2023/01/20 01:40:54;;;;;;;20.30;7.70;;;;;;;10.24;70.60;99875.45;105278;1260;59657;-54
2023/01/20 01:43:32;;;;;;;20.00;8.30;;;;;;;10.23;70.51;99875.04;105335;1260;59561;-53
2023/01/20 01:45:59;;;;;;;21.40;8.60;;;;;;;10.21;70.69;99870.30;105396;1259;65451;-54
2023/01/20 01:48:35;;;;;;;18.90;8.90;;;;;;;10.19;70.80;99867.96;105386;1257;62862;-54
2023/01/20 01:55:04;;;;;;;19.70;9.70;;;;;;;10.09;70.95;99867.70;105130;1258;59569;-51
2023/01/20 01:57:31;;;;;;;22.00;9.50;;;;;;;10.00;71.15;99877.33;105235;1260;62389;-53
2023/01/20 01:59:58;;;;;;;22.50;9.70;;;;;;;10.00;71.10;99881.86;105243;1254;67093;-51
2023/01/20 02:02:25;;;;;;;21.60;8.30;;;;;;;10.03;71.12;99885.46;105319;1254;63731;-52
2023/01/20 02:04:52;;;;;;;15.80;8.90;;;;;;;10.06;71.08;99885.48;105290;1257;65930;-53
2023/01/20 02:07:19;;;;;;;18.20;8.60;;;;;;;10.04;71.18;99889.55;105107;1255;59675;-52
2023/01/20 02:09:46;;;;;;;20.00;8.50;;;;;;;10.01;71.15;99889.71;105215;1260;61482;-53
2023/01/20 02:12:16;;;;;;;28.30;9.30;;;;;;;9.98;71.34;99884.86;105300;1254;66452;-52
2023/01/20 02:14:46;;;;;;;20.70;8.20;;;;;;;9.95;71.30;99880.20;105370;1257;62831;-53
2023/01/20 02:17:31;;;;;;;23.30;9.10;;;;;;;9.95;71.17;99880.39;105341;1260;73605;-52
2023/01/20 02:20:08;;;;;;;23.30;7.40;;;;;;;9.97;71.20;99882.36;105234;1257;59893;-53
2023/01/20 02:22:56;;;;;;;18.10;7.70;;;;;;;10.01;71.18;99883.21;105422;1262;61058;-54
2023/01/20 02:25:26;;;;;;;24.40;9.80;;;;;;;10.00;71.01;99885.19;105443;1255;75312;-54
2023/01/20 02:28:15;;;;;;;16.90;8.30;;;;;;;9.95;70.82;99889.00;105129;1259;62767;-54
2023/01/20 02:31:08;;;;;;;19.60;8.80;;;;;;;9.83;70.92;99892.45;105596;1255;66400;-52
2023/01/20 02:33:45;;;;;;;25.70;7.60;;;;;;;9.75;71.08;99895.97;105218;1259;60639;-53
2023/01/20 02:36:22;;;;;;;15.90;7.30;;;;;;;9.73;71.07;99895.04;105245;1260;60631;-54
2023/01/20 02:38:52;;;;;;;19.50;7.30;;;;;;;9.72;71.00;99892.48;105097;1257;67747;-54
2023/01/20 02:41:38;;;;;;;19.50;7.40;;;;;;;9.72;71.12;99895.13;105313;1254;63756;-55
2023/01/20 02:44:26;;;;;;;16.20;7.50;;;;;;;9.72;71.24;99893.94;105199;1261;66088;-53
2023/01/20 02:47:24;;;;;;;26.30;8.50;;;;;;;9.72;71.36;99901.81;105320;1269;60555;-55
2023/01/20 02:49:53;;;;;;;17.60;7.50;;;;;;;9.73;71.44;99910.27;105191;1254;60469;-55
2023/01/20 02:52:22;;;;;;;13.40;6.30;;;;;;;9.75;71.30;99919.57;105293;1254;66419;-53
2023/01/20 02:54:51;;;;;;;18.60;6.30;;;;;;;9.78;70.89;99921.96;105372;1254;62807;-54
2023/01/20 02:57:22;;;;;;;17.70;6.90;;;;;;;9.80;70.60;99922.12;105368;1258;66252;-54
2023/01/20 02:59:52;;;;;;;19.50;8.00;;;;;;;9.80;70.56;99920.52;105065;1261;60453;-54
2023/01/20 03:02:20;;;;;;;24.50;8.00;;;;;;;9.79;70.68;99923.23;105370;1254;60546;-55
2023/01/20 03:04:58;;;;;;;16.10;6.60;;;;;;;9.77;70.76;99929.86;105174;1254;75416;-55
2023/01/20 03:07:26;;;;;;;21.80;8.30;;;;;;;9.74;70.66;99928.19;105209;1254;63880;-53
2023/01/20 03:09:55;;;;;;;14.60;6.60;;;;;;;9.71;70.62;99921.66;105141;1260;65166;-54
2023/01/20 03:12:30;;;;;;;25.60;6.80;;;;;;;9.66;70.57;99921.86;105195;1254;60466;-54
2023/01/20 03:14:57;;;;;;;11.40;5.90;;;;;;;9.71;70.69;99931.13;105404;1260;60660;-55
2023/01/20 03:17:24;;;;;;;15.90;6.80;;;;;;;9.77;70.44;99943.36;105262;1254;67444;-53
2023/01/20 03:19:51;;;;;;;16.50;6.20;;;;;;;9.82;70.31;99938.95;105201;1257;63857;-53
2023/01/20 03:22:18;;;;;;;18.10;7.20;;;;;;;9.85;70.27;99939.21;105366;1257;66197;-54
2023/01/20 03:24:45;;;;;;;16.00;7.20;;;;;;;9.84;69.96;99942.83;105322;1257;60571;-53
2023/01/20 03:27:12;;;;;;;14.00;6.50;;;;;;;9.80;69.88;99942.77;105343;1260;60421;-53
2023/01/20 03:29:39;;;;;;;16.20;6.70;;;;;;;9.74;69.82;99947.52;105261;1260;67520;-53
2023/01/20 03:32:07;;;;;;;15.00;6.70;;;;;;;9.66;69.85;99946.63;105266;1257;63881;-53
2023/01/20 03:34:34;;;;;;;13.90;6.30;;;;;;;9.65;69.61;99951.45;105561;1260;66157;-53
2023/01/20 03:37:01;;;;;;;19.20;6.40;;;;;;;9.64;69.13;99956.58;105418;1257;60533;-54
2023/01/20 03:39:28;;;;;;;19.90;7.70;;;;;;;9.58;68.98;99961.67;105210;1254;60632;-53
2023/01/20 03:42:16;;;;;;;20.00;7.90;;;;;;;9.53;69.53;99968.48;105298;1257;66266;-53
2023/01/20 03:44:58;;;;;;;22.40;8.00;;;;;;;9.54;69.91;99967.04;105357;1255;63488;-53
2023/01/20 03:47:47;;;;;;;18.60;6.80;;;;;;;9.56;70.00;99963.39;105253;1260;66239;-53
2023/01/20 03:50:16;;;;;;;16.20;6.70;;;;;;;9.61;69.87;99969.63;105273;1257;60556;-53
2023/01/20 03:52:45;;;;;;;19.30;5.90;;;;;;;9.64;69.77;99975.33;105289;1254;60538;-52
2023/01/20 03:55:22;;;;;;;13.50;6.40;;;;;;;9.65;69.54;99983.14;105310;1254;67281;-51
2023/01/20 03:57:57;;;;;;;18.70;6.80;;;;;;;9.64;69.61;99991.95;105235;1254;63778;-50
2023/01/20 04:00:25;;;;;;;19.60;7.20;;;;;;;9.65;69.77;99995.94;105376;1259;66333;-50
2023/01/20 04:03:57;;;;;;;19.00;8.00;;;;;;;9.46;70.02;99996.53;102135;1302;603223;-76
2023/01/20 04:06:25;;;;;;;17.60;6.60;;;;;;;9.53;69.51;100002.85;104592;1270;58850;-76
2023/01/20 04:08:55;;;;;;;13.40;5.90;;;;;;;9.48;69.44;100005.64;108319;1266;57159;-78
2023/01/20 04:11:23;;;;;;;14.70;6.60;;;;;;;9.44;69.01;100007.90;104790;1267;65478;-77
2023/01/20 04:13:50;;;;;;;12.00;5.90;;;;;;;9.38;68.78;100008.38;104632;1267;63801;-77
2023/01/20 04:16:17;;;;;;;14.00;6.10;;;;;;;9.34;68.85;100012.77;104546;1267;66241;-77
2023/01/20 04:18:49;;;;;;;17.90;6.20;;;;;;;9.27;69.05;100018.19;104603;1264;59397;-78
2023/01/20 04:21:31;;;;;;;17.20;7.00;;;;;;;9.21;69.19;100022.01;104996;1263;59279;-75
2023/01/20 04:24:30;;;;;;;14.70;6.60;;;;;;;9.10;69.15;100021.29;104975;1264;65802;-77
2023/01/20 04:26:57;;;;;;;15.40;7.40;;;;;;;8.97;69.19;100021.45;105075;1264;62351;-76
2023/01/20 04:29:24;;;;;;;21.70;7.50;;;;;;;8.86;69.42;100024.27;104739;1266;66049;-76
2023/01/20 04:31:57;;;;;;;18.10;7.00;;;;;;;8.82;69.49;100032.27;104732;1261;59816;-76
2023/01/20 04:34:24;;;;;;;14.80;6.30;;;;;;;8.81;69.43;100036.36;104868;1260;59829;-77
2023/01/20 04:36:51;;;;;;;15.50;6.60;;;;;;;8.78;69.52;100040.64;104858;1260;66536;-77
2023/01/20 04:39:18;;;;;;;12.30;5.60;;;;;;;8.74;69.89;100043.89;104863;1265;62721;-76
2023/01/20 04:41:46;;;;;;;17.30;6.50;;;;;;;8.68;70.07;100045.38;105008;1260;65811;-75
2023/01/20 04:44:13;;;;;;;20.90;7.40;;;;;;;8.64;70.16;100056.94;104985;1261;59723;-78
2023/01/20 04:46:40;;;;;;;15.40;6.80;;;;;;;8.57;70.12;100052.56;104836;1261;59643;-77
2023/01/20 04:49:09;;;;;;;12.80;6.90;;;;;;;8.51;70.21;100056.15;104741;1260;65164;-75
2023/01/20 04:51:36;;;;;;;15.70;6.70;;;;;;;8.44;70.14;100062.64;105036;1264;62896;-76
2023/01/20 04:54:03;;;;;;;17.30;6.50;;;;;;;8.42;70.10;100060.85;104974;1266;66102;-76
2023/01/20 04:56:32;;;;;;;20.40;6.00;;;;;;;8.46;70.12;100058.33;104847;1266;60318;-75
2023/01/20 04:58:59;;;;;;;14.50;6.40;;;;;;;8.47;70.10;100062.07;104794;1260;62256;-77
2023/01/20 05:01:28;;;;;;;16.50;7.10;;;;;;;8.47;70.31;100062.44;104926;1266;66578;-76
2023/01/20 05:03:55;;;;;;;16.70;6.50;;;;;;;8.42;70.71;100064.73;104957;1266;62605;-79
2023/01/20 05:06:22;;;;;;;14.30;7.30;;;;;;;8.44;70.92;100074.39;104737;1261;66368;-77
2023/01/20 05:08:49;;;;;;;15.60;7.60;;;;;;;8.47;71.07;100080.94;105026;1266;59717;-76
2023/01/20 05:11:16;;;;;;;11.60;6.20;;;;;;;8.48;71.20;100076.66;104929;1262;59990;-77
2023/01/20 05:13:43;;;;;;;16.60;7.10;;;;;;;8.55;71.11;100076.35;105151;1258;66531;-77
2023/01/20 05:16:10;;;;;;;14.00;5.80;;;;;;;8.61;71.08;100078.64;105126;1257;63841;-77
2023/01/20 05:18:37;;;;;;;13.50;7.60;;;;;;;8.67;70.95;100076.84;105127;1258;66413;-77
2023/01/20 05:21:07;;;;;;;16.30;7.30;;;;;;;8.66;70.86;100079.31;105099;1257;59784;-77
2023/01/20 05:23:34;;;;;;;17.50;7.10;;;;;;;8.62;70.82;100081.00;105251;1260;60846;-75
2023/01/20 05:26:01;;;;;;;17.00;7.40;;;;;;;8.60;70.94;100090.98;105310;1257;66574;-77
2023/01/20 05:28:28;;;;;;;17.80;7.40;;;;;;;8.57;71.17;100102.05;105231;1257;62808;-77
2023/01/20 05:30:55;;;;;;;18.70;7.90;;;;;;;8.57;71.27;100105.20;105133;1263;66029;-76
2023/01/20 05:33:23;;;;;;;17.30;6.90;;;;;;;8.61;71.12;100103.34;105171;1263;59669;-77
2023/01/20 05:35:50;;;;;;;15.40;6.80;;;;;;;8.63;70.81;100102.48;105040;1261;59610;-75
2023/01/20 05:38:17;;;;;;;18.00;7.10;;;;;;;8.61;70.54;100101.26;105046;1257;65469;-76
2023/01/20 05:40:44;;;;;;;16.70;6.80;;;;;;;8.57;70.57;100104.02;105055;1263;63874;-75
2023/01/20 05:44:58;;;;;;;17.10;7.90;;;;;;;8.41;70.90;100110.96;105718;1287;600292;-93
2023/01/20 05:47:27;;;;;;;17.70;7.40;;;;;;;8.44;70.62;100116.48;107318;1267;58837;-93
2023/01/20 05:49:54;;;;;;;16.00;7.30;;;;;;;8.40;70.59;100121.32;108296;1261;57104;-92
2023/01/20 05:52:21;;;;;;;18.10;6.30;;;;;;;8.35;70.46;100122.00;107798;1259;73711;-92
2023/01/20 05:54:48;;;;;;;15.00;6.30;;;;;;;8.38;70.14;100119.02;107957;1260;63771;-93
2023/01/20 05:57:17;;;;;;;15.70;7.00;;;;;;;8.41;69.89;100114.59;107954;1258;65164;-92
2023/01/20 05:59:46;;;;;;;12.70;6.00;;;;;;;8.43;70.13;100115.31;108487;1254;215675;-92
2023/01/20 06:02:17;;;;;;;15.40;7.20;;;;;;;8.43;70.24;100116.94;109091;1254;56613;-92
2023/01/20 06:04:45;;;;;;;19.40;7.50;;;;;;;8.40;70.37;100118.85;109271;1254;64443;-93
2023/01/20 06:07:12;;;;;;;17.50;7.90;;;;;;;8.43;70.42;100121.70;108769;1254;62468;-92
2023/01/20 06:09:40;;;;;;;15.20;7.60;;;;;;;8.41;70.53;100125.98;108300;1254;66118;-90
2023/01/20 06:12:50;;;;;;;17.90;6.90;;;;;;;8.35;70.64;100126.00;108882;1253;58872;-92
2023/01/20 06:15:18;;;;;;;16.50;6.30;;;;;;;8.38;70.56;100127.20;108543;1253;59650;-92
2023/01/20 06:17:45;;;;;;;14.90;6.40;;;;;;;8.41;70.56;100128.02;108429;1253;66475;-93
2023/01/20 06:20:23;;;;;;;13.40;6.50;;;;;;;8.47;70.72;100131.95;108794;1254;71250;-94
2023/01/20 06:22:54;;;;;;;14.70;6.10;;;;;;;8.50;70.85;100138.73;108444;1254;66204;-93
2023/01/20 06:25:29;;;;;;;12.60;6.50;;;;;;;8.52;70.95;100140.18;108377;1255;58790;-94
2023/01/20 06:27:56;;;;;;;14.10;6.60;;;;;;;8.52;70.92;100145.11;108570;1255;59227;-92
2023/01/20 06:30:23;;;;;;;11.80;6.30;;;;;;;8.50;71.02;100144.00;108695;1256;65293;-93
2023/01/20 06:32:50;;;;;;;16.60;5.30;;;;;;;8.50;71.13;100143.83;108637;1253;63752;-91
2023/01/20 06:35:20;;;;;;;13.20;5.20;;;;;;;8.56;71.03;100144.09;108258;1253;65020;-93
2023/01/20 06:37:47;;;;;;;12.00;5.40;;;;;;;8.65;70.93;100146.25;108117;1253;59550;-92
2023/01/20 06:40:15;;;;;;;13.30;6.30;;;;;;;8.72;70.89;100145.88;108620;1253;59620;-87
2023/01/20 06:42:42;;;;;;;13.80;5.70;;;;;;;8.75;70.84;100148.77;108134;1254;66162;-88
2023/01/20 06:45:10;;;;;;;15.30;6.60;;;;;;;8.77;71.04;100155.30;107709;1255;62635;-87
2023/01/20 06:47:37;;;;;;;14.00;5.90;;;;;;;8.83;71.23;100158.52;107855;1255;65905;-87
2023/01/20 06:50:05;;;;;;;13.30;6.00;;;;;;;8.89;71.14;100158.05;107913;1257;59243;-87
2023/01/20 06:52:33;;;;;;;13.30;5.90;;;;;;;8.90;70.81;100164.25;107937;1256;57811;-87
2023/01/20 06:55:00;;;;;;;12.10;5.30;;;;;;;8.94;70.51;100168.89;107871;1255;65760;-86
2023/01/20 06:57:30;;;;;;;11.40;4.90;;;;;;;8.96;70.39;100169.58;108104;1255;63630;-87
2023/01/20 06:59:58;;;;;;;14.40;5.80;;;;;;;8.99;70.25;100167.25;107990;1253;66257;-88
2023/01/20 07:02:25;;;;;;;14.90;6.10;;;;;;;9.00;70.37;100168.36;108076;1255;62697;-88
2023/01/20 07:04:53;;;;;;;18.30;6.20;;;;;;;9.08;70.53;100175.81;107750;1260;59742;-88
2023/01/20 07:07:20;;;;;;;15.80;6.10;;;;;;;9.10;70.39;100177.89;107641;1260;66472;-88
2023/01/20 07:09:47;;;;;;;15.80;6.30;;;;;;;9.08;70.28;100173.50;108010;1255;62474;-88
2023/01/20 07:12:14;;;;;;;15.00;5.40;;;;;;;9.10;70.37;100179.84;108270;1253;66150;-88
2023/01/20 07:14:41;;;;;;;12.80;5.10;;;;;;;9.19;70.03;100181.64;108484;1253;58194;-88
2023/01/20 07:17:11;;;;;;;11.60;5.20;;;;;;;9.25;69.59;100183.07;108563;1253;57542;-88
2023/01/20 07:19:38;;;;;;;15.00;7.40;;;;;;;9.32;69.59;100185.86;108609;1255;66243;-89
2023/01/20 07:22:05;;;;;;;20.60;9.80;;;;;;;9.39;69.57;100190.39;108129;1255;63338;-88
2023/01/20 07:24:32;;;;;;;19.30;10.10;;;;;;;9.41;69.33;100194.65;108497;1256;66003;-89
2023/01/20 07:26:59;;;;;;;17.70;9.20;;;;;;;9.40;69.37;100201.17;108461;1255;59333;-89
2023/01/20 07:29:26;;;;;;;16.10;9.00;;;;;;;9.41;69.37;100196.74;108681;1253;59221;-88
2023/01/20 07:31:53;;;;;;;17.10;6.70;;;;;;;9.40;69.35;100187.16;108798;1255;65260;-88
2023/01/20 07:34:21;;;;;;;14.30;6.40;;;;;;;9.47;69.18;100183.78;109152;1253;62870;-89
2023/01/20 07:36:51;;;;;;;12.90;5.40;;;;;;;9.56;68.94;100185.19;109290;1255;64904;-93
2023/01/20 07:39:21;;;;;;;17.40;6.10;;;;;;;9.63;68.77;100185.00;107890;1255;58298;-94
2023/01/20 07:41:48;;;;;;;13.30;5.80;;;;;;;9.68;68.71;100188.52;108100;1255;59570;-93
2023/01/20 07:44:15;;;;;;;12.90;5.60;;;;;;;9.69;68.79;100192.45;108178;1259;65274;-94
2023/01/20 07:46:42;;;;;;;14.10;6.30;;;;;;;9.73;68.84;100200.73;108650;1255;63898;-93
2023/01/20 07:49:10;;;;;;;17.60;6.60;;;;;;;9.75;68.66;100201.04;108071;1255;65076;-95
2023/01/20 07:51:38;;;;;;;12.10;6.80;;;;;;;9.76;68.43;100203.40;108094;1255;57571;-94
2023/01/20 07:54:08;;;;;;;14.30;5.90;;;;;;;9.78;68.33;100206.94;107766;1255;57837;-93
2023/01/20 07:56:35;;;;;;;15.10;5.90;;;;;;;9.85;68.09;100210.08;107716;1255;66641;-94
2023/01/20 07:59:03;;;;;;;14.30;5.30;;;;;;;9.93;68.03;100213.98;108139;1258;63871;-94
2023/01/20 08:01:30;;;;;;;17.70;6.70;;;;;;;9.96;68.10;100209.17;108820;1255;65260;-88
2023/01/20 08:03:59;;;;;;;13.30;6.20;;;;;;;10.01;68.38;100207.25;108163;1255;57548;-88
2023/01/20 08:06:26;;;;;;;14.80;6.80;;;;;;;10.07;68.29;100207.97;108024;1253;59514;-89
2023/01/20 08:08:56;;;;;;;12.20;6.60;;;;;;;10.15;68.26;100206.30;107987;1255;66857;-87
2023/01/20 08:11:24;;;;;;;15.10;6.10;;;;;;;10.17;68.30;100211.75;108164;1255;62732;-88
2023/01/20 08:13:52;;;;;;;13.00;6.50;;;;;;;10.19;68.28;100216.83;108399;1255;65943;-88
2023/01/20 08:16:19;;;;;;;17.60;6.80;;;;;;;10.25;67.96;100217.41;108245;1255;59714;-86
2023/01/20 08:18:47;;;;;;;14.70;6.80;;;;;;;10.35;67.82;100218.88;107992;1255;61499;-87
2023/01/20 08:21:22;;;;;;;15.90;6.20;;;;;;;10.47;67.92;100221.23;108035;1255;65551;-88
2023/01/20 08:23:49;;;;;;;16.10;6.70;;;;;;;10.64;68.13;100214.73;107569;1261;63623;-88
2023/01/20 08:26:18;;;;;;;12.30;7.20;;;;;;;10.76;68.02;100213.58;107485;1256;65294;-88
2023/01/20 08:28:45;;;;;;;14.20;7.70;;;;;;;10.86;68.07;100214.55;107713;1256;59732;-87
2023/01/20 08:31:15;;;;;;;16.40;7.80;;;;;;;10.92;67.88;100210.66;108013;1255;59529;-87
2023/01/20 08:33:42;;;;;;;18.40;8.10;;;;;;;10.96;67.69;100209.27;108241;1255;66523;-88
2023/01/20 08:36:17;;;;;;;16.90;7.30;;;;;;;11.00;67.49;100210.40;107860;1254;63471;-88
2023/01/20 08:38:45;;;;;;;13.00;6.60;;;;;;;11.06;67.01;100216.30;108040;1258;66223;-87
2023/01/20 08:41:17;;;;;;;13.70;7.00;;;;;;;11.11;66.64;100219.05;108175;1259;59338;-88
2023/01/20 08:43:44;;;;;;;19.90;7.50;;;;;;;11.10;66.56;100217.89;108839;1255;59148;-87
2023/01/20 08:46:12;;;;;;;14.50;6.70;;;;;;;11.09;66.66;100226.27;108851;1255;65427;-88
2023/01/20 08:48:40;;;;;;;15.60;6.60;;;;;;;11.11;66.74;100226.12;108570;1255;62584;-88
2023/01/20 08:51:18;;;;;;;16.10;6.80;;;;;;;11.13;66.52;100220.86;108306;1256;64831;-87
2023/01/20 08:53:47;;;;;;;13.00;6.20;;;;;;;11.15;66.36;100219.94;107263;1257;59613;-87
2023/01/20 08:56:15;;;;;;;13.80;5.80;;;;;;;11.22;66.34;100214.14;107541;1256;59077;-88
2023/01/20 08:58:43;;;;;;;15.80;6.50;;;;;;;11.28;66.21;100212.19;107319;1255;66697;-88
2023/01/20 09:01:22;;;;;;;17.90;7.00;;;;;;;11.29;66.36;100208.59;107849;1255;62833;-88
2023/01/20 09:03:49;;;;;;;12.90;6.90;;;;;;;11.30;66.24;100209.94;108609;1255;65154;-88
2023/01/20 09:06:42;;;;;;;13.50;6.50;;;;;;;11.30;66.26;100211.48;108175;1256;59148;-88
2023/01/20 09:09:09;;;;;;;11.80;7.40;;;;;;;11.28;66.28;100214.98;107809;1255;59131;-88
2023/01/20 09:11:39;;;;;;;18.20;7.20;;;;;;;11.28;66.28;100213.06;108513;1256;66705;-89
2023/01/20 09:14:07;;;;;;;13.40;5.40;;;;;;;11.33;66.19;100210.86;108413;1256;62497;-88
2023/01/20 09:16:34;;;;;;;9.80;6.20;;;;;;;11.45;65.93;100210.09;108649;1255;64980;-88
2023/01/20 09:19:02;;;;;;;16.50;6.10;;;;;;;11.54;65.72;100213.67;108040;1253;58481;-88
2023/01/20 09:21:31;;;;;;;13.60;6.30;;;;;;;11.60;65.78;100215.11;108072;1263;59253;-88
2023/01/20 09:23:59;;;;;;;16.80;7.30;;;;;;;11.66;65.63;100211.05;107317;1255;66472;-88
2023/01/20 09:26:26;;;;;;;13.90;6.20;;;;;;;11.69;65.48;100216.36;107538;1256;62784;-88
2023/01/20 09:29:07;;;;;;;17.00;7.20;;;;;;;11.69;65.42;100216.69;107469;1256;64892;-88
2023/01/20 09:31:45;;;;;;;16.10;7.70;;;;;;;11.68;65.25;100221.05;107525;1255;59737;-88
2023/01/20 09:34:17;;;;;;;14.30;6.40;;;;;;;11.66;65.08;100221.95;107788;1256;57525;-88
2023/01/20 09:45:37;;;;;;;13.40;6.70;;;;;;;11.76;64.89;100221.81;108196;1256;59088;-87
2023/01/20 09:54:07;;;;;;;12.30;6.10;;;;;;;11.72;65.15;100228.63;108066;1257;63088;-88
2023/01/20 10:10:42;;;;;;;11.10;5.50;;;;;;;12.54;64.23;100219.85;102753;1283;604337;-50
2023/01/20 10:13:19;;;;;;;12.70;6.30;;;;;;;13.29;62.25;100220.95;104546;1270;93782;-49
2023/01/20 10:15:49;;;;;;;15.10;6.70;;;;;;;13.39;61.65;100219.52;104569;1266;59298;-49
2023/01/20 10:18:19;;;;;;;14.80;6.60;;;;;;;13.40;61.59;100216.48;104606;1272;64374;-50
2023/01/20 10:20:52;;;;;;;16.20;6.20;;;;;;;13.39;61.50;100212.48;104670;1269;61609;-49
2023/01/20 10:23:31;;;;;;;11.40;6.50;;;;;;;13.40;61.56;100209.27;104495;1270;65107;-49
2023/01/20 10:26:05;;;;;;;16.90;9.50;;;;;;;13.41;61.74;100209.72;104543;1266;59474;-52
2023/01/20 10:28:57;;;;;;;12.50;6.90;;;;;;;13.42;61.60;100211.84;104617;1270;60310;-51
2023/01/20 10:31:28;;;;;;;14.30;7.30;;;;;;;13.43;61.01;100213.37;104569;1267;63439;-51
2023/01/20 10:33:59;;;;;;;12.80;7.00;;;;;;;13.41;60.62;100212.64;104831;1267;62779;-51
2023/01/20 10:36:27;;;;;;;10.50;6.10;;;;;;;13.46;60.73;100216.77;104775;1269;64949;-50
2023/01/20 10:39:00;;;;;;;14.10;6.60;;;;;;;13.50;60.62;100223.23;104656;1270;59679;-50
2023/01/20 10:41:38;;;;;;;17.40;7.60;;;;;;;13.50;60.67;100219.79;104703;1267;59659;-50
2023/01/20 10:44:10;;;;;;;14.10;8.00;;;;;;;13.46;60.81;100219.27;104676;1273;65552;-52
2023/01/20 10:47:16;;;;;;;15.90;7.90;;;;;;;13.42;60.86;100220.54;104681;1272;63005;-48
2023/01/20 10:50:11;;;;;;;16.80;8.30;;;;;;;13.37;61.04;100222.39;104352;1275;64699;-50
2023/01/20 10:52:57;;;;;;;11.70;7.40;;;;;;;13.34;60.90;100219.34;104845;1270;59779;-50
2023/01/20 10:56:13;;;;;;;17.30;7.80;;;;;;;13.26;61.05;100219.16;104531;1269;60003;-50
2023/01/20 10:58:42;;;;;;;13.00;7.50;;;;;;;13.16;61.16;100221.45;104579;1270;65496;-50
2023/01/20 11:01:12;;;;;;;15.50;6.70;;;;;;;13.08;61.23;100218.69;104796;1269;61430;-50
2023/01/20 11:03:41;;;;;;;15.10;6.00;;;;;;;13.10;61.24;100218.83;104709;1269;63902;-49
2023/01/20 11:06:26;;;;;;;15.10;7.10;;;;;;;13.16;61.37;100220.10;104913;1269;60072;-49
2023/01/20 11:08:54;;;;;;;18.50;7.40;;;;;;;13.22;61.32;100224.70;104882;1264;60834;-50
2023/01/20 11:11:22;;;;;;;16.60;7.90;;;;;;;13.22;61.58;100215.65;104747;1269;65070;-50
2023/01/20 11:13:53;;;;;;;15.50;7.60;;;;;;;13.23;61.62;100210.67;104905;1268;61691;-50
2023/01/20 11:16:25;;;;;;;15.10;8.10;;;;;;;13.26;61.64;100207.19;104685;1269;65075;-50
2023/01/20 11:18:56;;;;;;;21.20;8.50;;;;;;;13.30;61.82;100203.98;105301;1257;59726;-51
2023/01/20 11:21:23;;;;;;;15.10;9.40;;;;;;;13.35;61.69;100206.89;105271;1257;59659;-50
2023/01/20 11:23:51;;;;;;;13.10;7.60;;;;;;;13.37;61.58;100203.00;105292;1262;65187;-49
2023/01/20 11:26:23;;;;;;;12.80;7.50;;;;;;;13.38;61.39;100203.08;105335;1262;62492;-50
2023/01/20 11:28:56;;;;;;;15.00;7.00;;;;;;;13.46;61.26;100204.46;105256;1263;64917;-49
2023/01/20 11:31:43;;;;;;;10.60;6.10;;;;;;;13.46;61.11;100210.77;105344;1257;59704;-51
2023/01/20 11:34:26;;;;;;;12.80;7.10;;;;;;;13.51;60.63;100212.43;105522;1259;59625;-51
2023/01/20 11:37:05;;;;;;;10.70;5.90;;;;;;;13.55;60.68;100215.43;105385;1263;65418;-54
2023/01/20 11:39:57;;;;;;;12.60;5.90;;;;;;;13.56;60.76;100220.95;105266;1262;62663;-50
2023/01/20 11:42:26;;;;;;;11.70;6.40;;;;;;;13.53;60.84;100222.25;105389;1263;73359;-50
2023/01/20 11:44:54;;;;;;;11.90;6.10;;;;;;;13.52;60.76;100224.26;105422;1261;59753;-51
2023/01/20 11:47:30;;;;;;;11.00;7.00;;;;;;;13.54;60.71;100225.86;105173;1258;59653;-50
2023/01/20 11:50:03;;;;;;;17.40;6.60;;;;;;;13.54;60.87;100225.02;105206;1258;65353;-51
2023/01/20 11:52:35;;;;;;;11.30;6.80;;;;;;;13.51;60.90;100223.89;104934;1264;62701;-52
2023/01/20 11:55:06;;;;;;;12.10;5.30;;;;;;;13.47;60.89;100223.72;105250;1270;64929;-52
2023/01/20 11:57:33;;;;;;;9.20;5.20;;;;;;;13.48;60.88;100220.95;104924;1263;60514;-52
2023/01/20 12:00:00;;;;;;;10.50;5.60;;;;;;;13.52;60.84;100225.20;104974;1260;59678;-52
2023/01/20 12:02:27;;;;;;;10.50;5.90;;;;;;;13.54;60.91;100230.95;104921;1262;65366;-51
2023/01/20 12:05:02;;;;;;;10.70;6.30;;;;;;;13.54;60.77;100230.77;104946;1258;62598;-51
2023/01/20 12:07:32;;;;;;;16.20;6.40;;;;;;;13.54;60.81;100231.90;105103;1263;64721;-51
2023/01/20 12:10:03;;;;;;;13.50;7.10;;;;;;;13.53;60.89;100234.80;105157;1263;59681;-52
2023/01/20 12:12:44;;;;;;;10.90;7.00;;;;;;;13.52;60.79;100235.04;105230;1259;59746;-52
2023/01/20 12:15:17;;;;;;;13.90;6.60;;;;;;;13.52;60.72;100238.08;105195;1257;64304;-51